Time;durP1;ratioP1;P1;durP2;ratioP2;P2;SDS_P1;SDS_P2;PMS_P1;PMS_P2;Temp;Humidity;BMP_temperature;BMP_pressure;BME280_temperature;BME280_humidity;BME280_pressure;Samples;Min_cycle;Max_cycle;Signal;HPM_P1;HPM_P2
2022/09/01 00:01:27;;;;;;;1.23;0.50;;;17.10;99.90;;;;;;6183856;23;20024;-85
2022/09/01 00:03:55;;;;;;;0.68;0.40;;;17.10;99.90;;;;;;6157513;23;20016;-84
2022/09/01 00:06:22;;;;;;;1.17;0.47;;;17.10;99.90;;;;;;6158036;23;20025;-84
2022/09/01 00:08:54;;;;;;;0.68;0.32;;;17.10;99.90;;;;;;6156276;23;20043;-82
2022/09/01 00:11:22;;;;;;;0.80;0.50;;;17.10;99.90;;;;;;6181853;23;20052;-85
2022/09/01 00:13:51;;;;;;;1.20;0.40;;;17.10;99.90;;;;;;6180927;23;20032;-83
2022/09/01 00:16:18;;;;;;;0.80;0.40;;;17.10;99.90;;;;;;6185660;23;20083;-85
2022/09/01 00:18:48;;;;;;;0.60;0.50;;;17.10;99.90;;;;;;6183473;23;20104;-88
2022/09/01 00:21:17;;;;;;;0.50;0.38;;;17.10;99.90;;;;;;6156386;23;20021;-84
2022/09/01 00:23:43;;;;;;;0.28;0.28;;;17.10;99.90;;;;;;6156307;23;20480;-83
2022/09/01 00:26:11;;;;;;;0.50;0.40;;;17.10;99.90;;;;;;6155580;23;20032;-93
2022/09/01 00:28:39;;;;;;;0.47;0.30;;;17.20;99.90;;;;;;6204633;23;20103;-83
2022/09/01 00:31:06;;;;;;;0.90;0.38;;;17.20;99.90;;;;;;6154257;23;20036;-84
2022/09/01 00:33:34;;;;;;;1.50;0.60;;;17.10;99.90;;;;;;6156481;23;20100;-85
2022/09/01 00:36:01;;;;;;;0.43;0.43;;;17.20;99.90;;;;;;6156025;23;20026;-84
2022/09/01 00:38:28;;;;;;;0.82;0.43;;;17.20;99.90;;;;;;6181184;23;20041;-84
2022/09/01 00:40:55;;;;;;;1.20;0.32;;;17.20;99.90;;;;;;6181306;23;20028;-93
2022/09/01 00:43:40;;;;;;;0.50;0.30;;;17.20;99.90;;;;;;6155947;23;20017;-90
2022/09/01 00:46:10;;;;;;;0.73;0.50;;;17.20;99.90;;;;;;6182408;23;20024;-82
2022/09/01 00:48:37;;;;;;;0.50;0.30;;;17.20;99.90;;;;;;6159497;23;20387;-83
2022/09/01 00:51:04;;;;;;;0.90;0.50;;;17.20;99.90;;;;;;6157001;23;20020;-82
2022/09/01 00:53:32;;;;;;;0.22;0.22;;;17.30;99.90;;;;;;6157557;23;20083;-82
2022/09/01 00:55:59;;;;;;;0.80;0.30;;;17.30;99.90;;;;;;6185250;23;20024;-84
2022/09/01 00:58:25;;;;;;;1.38;0.50;;;17.30;99.90;;;;;;6184515;23;20020;-84
2022/09/01 01:00:52;;;;;;;0.95;0.40;;;17.30;99.90;;;;;;6157151;23;20055;-82
2022/09/01 01:03:20;;;;;;;0.47;0.32;;;17.30;99.90;;;;;;6158025;23;20025;-87
2022/09/01 01:05:53;;;;;;;0.85;0.40;;;17.30;99.90;;;;;;6156031;23;20040;-87
2022/09/01 01:08:32;;;;;;;0.57;0.32;;;17.30;99.90;;;;;;6158381;23;20021;-87
2022/09/01 01:11:01;;;;;;;0.70;0.30;;;17.30;99.90;;;;;;6184766;23;20024;-83
2022/09/01 01:13:30;;;;;;;0.47;0.30;;;17.30;99.90;;;;;;6156611;23;20048;-88
2022/09/01 01:15:58;;;;;;;0.30;0.30;;;17.30;99.90;;;;;;6157448;23;20028;-86
2022/09/01 01:18:25;;;;;;;0.50;0.20;;;17.30;99.90;;;;;;6157557;23;20027;-89
2022/09/01 01:24:20;;;;;;;0.28;0.25;;;17.30;99.90;;;;;;6189948;23;20460;-83
2022/09/01 01:26:48;;;;;;;0.32;0.25;;;17.30;99.90;;;;;;6188898;23;20025;-81
2022/09/01 01:29:16;;;;;;;0.30;0.20;;;17.40;99.90;;;;;;6159441;23;20070;-83
2022/09/01 01:31:48;;;;;;;0.95;0.30;;;17.30;99.90;;;;;;6154190;23;20118;-83
2022/09/01 01:34:17;;;;;;;1.83;0.57;;;17.30;99.90;;;;;;6155831;23;20094;-86
2022/09/01 01:36:44;;;;;;;0.52;0.52;;;17.30;99.90;;;;;;6211293;23;20051;-81
2022/09/01 01:39:24;;;;;;;0.45;0.30;;;17.30;99.90;;;;;;6160417;23;20028;-83
2022/09/01 01:41:51;;;;;;;0.63;0.30;;;17.30;99.90;;;;;;6158373;23;20063;-84
2022/09/01 01:44:21;;;;;;;0.85;0.40;;;17.30;99.90;;;;;;6156619;23;20099;-83
2022/09/01 01:52:16;;;;;;;0.45;0.40;;;17.30;99.90;;;;;;6216652;22;20031;-91
2022/09/01 01:54:46;;;;;;;0.52;0.30;;;17.20;99.90;;;;;;6146132;23;20036;-92
2022/09/01 01:57:16;;;;;;;0.52;0.38;;;17.30;99.90;;;;;;6143957;23;20312;-93
2022/09/01 01:59:47;;;;;;;0.20;0.20;;;17.30;99.90;;;;;;6145594;23;20027;-92
2022/09/01 02:02:17;;;;;;;1.40;0.40;;;17.30;99.90;;;;;;6144588;23;20084;-91
2022/09/01 02:04:47;;;;;;;0.65;0.32;;;17.20;99.90;;;;;;6143899;23;20020;-91
2022/09/01 02:07:18;;;;;;;0.60;0.45;;;17.20;99.90;;;;;;6145777;23;20067;-91
2022/09/01 02:09:47;;;;;;;1.08;0.68;;;17.20;99.90;;;;;;6144936;23;20040;-91
2022/09/01 02:12:18;;;;;;;0.57;0.32;;;17.20;99.90;;;;;;6145764;23;20024;-92
2022/09/01 02:14:49;;;;;;;0.65;0.45;;;17.20;99.90;;;;;;6147490;23;20020;-92
2022/09/01 02:17:22;;;;;;;0.43;0.38;;;17.20;99.90;;;;;;6149264;23;20391;-92
2022/09/01 02:19:56;;;;;;;0.95;0.30;;;17.20;99.90;;;;;;6146047;23;20078;-91
2022/09/01 02:22:27;;;;;;;0.82;0.50;;;17.20;99.90;;;;;;6148453;23;20021;-92
2022/09/01 02:24:59;;;;;;;0.90;0.30;;;17.10;99.90;;;;;;6147662;23;20530;-92
2022/09/01 02:27:32;;;;;;;0.68;0.38;;;17.10;99.90;;;;;;6147060;23;20032;-92
2022/09/01 02:30:09;;;;;;;0.50;0.38;;;17.10;99.90;;;;;;6149261;23;20017;-91
2022/09/01 02:32:42;;;;;;;0.68;0.30;;;17.10;99.90;;;;;;6144182;23;20027;-92
2022/09/01 02:35:15;;;;;;;0.65;0.43;;;17.10;99.90;;;;;;6141129;23;20025;-90
2022/09/01 02:37:48;;;;;;;1.20;0.20;;;17.10;99.90;;;;;;6140454;23;20360;-92
2022/09/01 02:40:18;;;;;;;0.45;0.32;;;17.10;99.90;;;;;;6139892;23;20302;-91
2022/09/01 02:42:51;;;;;;;0.50;0.20;;;17.10;99.90;;;;;;6139855;23;20037;-91
2022/09/01 02:45:23;;;;;;;0.50;0.30;;;17.10;99.90;;;;;;6139322;23;20047;-92
2022/09/01 02:47:58;;;;;;;0.28;0.20;;;17.00;99.90;;;;;;6119167;23;20029;-92
2022/09/01 02:50:34;;;;;;;0.40;0.40;;;17.10;99.90;;;;;;6129562;23;20086;-93
2022/09/01 02:53:26;;;;;;;1.15;0.50;;;17.10;99.90;;;;;;6195355;23;20092;-93
2022/09/01 02:56:08;;;;;;;1.00;0.30;;;17.00;99.90;;;;;;6175417;23;20055;-92
2022/09/01 02:58:45;;;;;;;0.30;0.30;;;17.00;99.90;;;;;;6172424;23;20036;-93
2022/09/01 03:01:23;;;;;;;0.35;0.20;;;17.00;99.90;;;;;;6169620;23;20032;-93
2022/09/01 03:04:11;;;;;;;0.75;0.38;;;17.00;99.90;;;;;;6171497;23;20107;-92
2022/09/01 03:06:53;;;;;;;1.33;0.40;;;16.90;99.90;;;;;;6195528;23;20047;-93
2022/09/01 03:09:25;;;;;;;0.60;0.45;;;16.90;99.90;;;;;;6168078;23;20067;-92
2022/09/01 03:12:06;;;;;;;1.30;0.50;;;16.80;99.90;;;;;;6172827;23;20216;-92
2022/09/01 03:14:35;;;;;;;2.28;0.57;;;16.80;99.90;;;;;;6167938;23;20013;-92
2022/09/01 03:17:06;;;;;;;0.73;0.40;;;16.80;99.90;;;;;;6167620;23;20016;-91
2022/09/01 03:19:43;;;;;;;1.75;0.60;;;16.80;99.90;;;;;;6165236;23;20020;-91
2022/09/01 03:22:12;;;;;;;0.43;0.30;;;16.70;99.90;;;;;;6191289;23;20385;-92
2022/09/01 03:24:41;;;;;;;0.77;0.50;;;16.70;99.90;;;;;;6168053;23;20017;-91
2022/09/01 03:27:12;;;;;;;1.15;0.40;;;16.70;99.90;;;;;;6165687;23;20091;-92
2022/09/01 03:29:41;;;;;;;1.67;0.52;;;16.70;99.90;;;;;;6166787;23;20012;-91
2022/09/01 03:32:11;;;;;;;0.75;0.50;;;16.70;99.90;;;;;;6167400;23;20392;-93
2022/09/01 03:34:40;;;;;;;1.25;0.38;;;16.70;99.90;;;;;;6166579;23;20103;-92
2022/09/01 03:37:11;;;;;;;1.58;0.60;;;16.70;99.90;;;;;;6168684;23;20098;-92
2022/09/01 03:39:42;;;;;;;0.70;0.32;;;16.70;99.90;;;;;;6169055;23;20028;-92
2022/09/01 03:42:24;;;;;;;1.05;0.50;;;16.70;99.90;;;;;;6169259;23;20079;-91
2022/09/01 03:44:59;;;;;;;0.50;0.40;;;16.70;99.90;;;;;;6172497;23;20140;-92
2022/09/01 03:47:39;;;;;;;0.57;0.40;;;16.70;99.90;;;;;;6171095;23;20044;-91
2022/09/01 03:50:21;;;;;;;0.65;0.40;;;16.70;99.90;;;;;;6166735;23;20017;-93
2022/09/01 03:53:03;;;;;;;0.20;0.20;;;16.70;99.90;;;;;;6121119;23;20404;-92
2022/09/01 03:55:45;;;;;;;1.05;0.55;;;16.60;99.90;;;;;;6118574;23;20087;-93
2022/09/01 03:58:27;;;;;;;0.40;0.30;;;16.60;99.90;;;;;;6122064;23;20083;-92
2022/09/01 04:01:08;;;;;;;1.05;0.52;;;16.60;99.90;;;;;;6139530;23;20013;-93
2022/09/01 04:03:57;;;;;;;0.50;0.40;;;16.60;99.90;;;;;;6146100;23;20039;-93
2022/09/01 04:06:35;;;;;;;1.13;0.50;;;16.60;99.90;;;;;;6118793;23;20021;-92
2022/09/01 04:09:19;;;;;;;1.48;0.60;;;16.60;99.90;;;;;;6123625;23;20028;-91
2022/09/01 04:11:52;;;;;;;1.35;0.70;;;16.60;99.90;;;;;;6139504;23;20136;-92
2022/09/01 04:14:41;;;;;;;2.10;0.38;;;16.60;99.90;;;;;;6125089;23;20021;-92
2022/09/01 04:20:25;;;;;;;1.40;0.70;;;16.60;99.90;;;;;;6151932;23;20097;-93
2022/09/01 04:23:09;;;;;;;0.22;0.22;;;16.70;99.90;;;;;;6125614;23;20048;-92
2022/09/01 04:25:50;;;;;;;1.25;0.50;;;16.60;99.90;;;;;;6125908;23;20047;-90
2022/09/01 04:28:25;;;;;;;0.52;0.40;;;16.70;99.90;;;;;;6117872;23;20032;-91
2022/09/01 04:30:56;;;;;;;0.65;0.47;;;16.70;99.90;;;;;;6140902;23;20017;-91
2022/09/01 04:33:26;;;;;;;0.60;0.50;;;16.70;99.90;;;;;;6139107;23;20119;-92
2022/09/01 04:35:55;;;;;;;0.93;0.50;;;16.70;99.90;;;;;;6141572;23;20443;-92
2022/09/01 04:38:31;;;;;;;1.45;0.40;;;16.70;99.90;;;;;;6119071;23;20025;-92
2022/09/01 04:41:05;;;;;;;0.82;0.50;;;16.70;99.90;;;;;;6145228;23;20025;-92
2022/09/01 04:43:56;;;;;;;0.95;0.57;;;16.70;99.90;;;;;;6121899;23;20017;-94
2022/09/01 04:46:43;;;;;;;1.65;0.55;;;16.70;99.90;;;;;;6145101;23;20112;-93
2022/09/01 04:49:28;;;;;;;0.50;0.50;;;16.70;99.90;;;;;;6122459;23;20492;-92
2022/09/01 04:52:40;;;;;;;0.85;0.60;;;16.70;99.90;;;;;;6167725;23;20025;-92
2022/09/01 04:55:20;;;;;;;1.83;0.70;;;16.70;99.90;;;;;;6195389;23;20021;-93
2022/09/01 04:58:29;;;;;;;0.57;0.40;;;16.60;99.90;;;;;;6178466;23;20020;-92
2022/09/01 05:01:25;;;;;;;1.25;0.68;;;16.70;99.90;;;;;;6201813;23;20080;-92
2022/09/01 05:04:17;;;;;;;1.83;0.75;;;16.70;99.90;;;;;;6178553;23;20051;-93
2022/09/01 05:07:36;;;;;;;0.73;0.47;;;16.70;99.90;;;;;;6201318;23;20361;-93
2022/09/01 05:10:28;;;;;;;0.75;0.50;;;16.60;99.90;;;;;;6186217;23;20675;-93
2022/09/01 05:13:26;;;;;;;1.08;0.40;;;16.60;99.90;;;;;;6177513;23;20020;-92
2022/09/01 05:16:12;;;;;;;0.40;0.40;;;16.70;99.90;;;;;;6177141;23;20040;-94
2022/09/01 05:19:00;;;;;;;0.47;0.40;;;16.70;99.90;;;;;;6181375;23;20043;-93
2022/09/01 05:22:03;;;;;;;;;;;16.70;99.90;;;;;;6187606;23;20016;-91
2022/09/01 05:24:44;;;;;;;0.93;0.40;;;16.70;99.90;;;;;;6227281;23;19927;-93
2022/09/01 05:27:28;;;;;;;1.27;0.60;;;16.70;99.90;;;;;;6230455;23;20066;-92
2022/09/01 05:30:16;;;;;;;0.85;0.43;;;16.70;99.90;;;;;;6200170;23;20020;-91
2022/09/01 05:32:51;;;;;;;0.98;0.40;;;16.80;99.90;;;;;;6172098;23;20577;-91
2022/09/01 05:35:26;;;;;;;0.63;0.60;;;16.80;99.90;;;;;;6171680;23;20024;-90
2022/09/01 05:38:03;;;;;;;1.50;0.85;;;16.90;99.90;;;;;;6175579;23;20016;-90
2022/09/01 05:40:39;;;;;;;1.58;0.60;;;16.80;99.90;;;;;;6173007;23;20020;-92
2022/09/01 05:43:21;;;;;;;0.70;0.50;;;16.90;99.90;;;;;;6171878;23;20086;-92
2022/09/01 05:46:03;;;;;;;0.57;0.40;;;17.00;99.90;;;;;;6177675;23;20486;-92
2022/09/01 05:48:38;;;;;;;1.35;0.70;;;17.00;99.90;;;;;;6174651;23;20031;-92
2022/09/01 05:51:27;;;;;;;1.45;0.80;;;17.00;99.90;;;;;;6174305;23;20025;-92
2022/09/01 05:54:26;;;;;;;0.85;0.70;;;17.00;99.90;;;;;;6182938;23;20042;-92
2022/09/01 05:57:02;;;;;;;0.80;0.57;;;17.00;99.90;;;;;;6173218;23;20012;-91
2022/09/01 05:59:55;;;;;;;1.38;0.57;;;17.00;99.90;;;;;;6176349;23;20046;-93
2022/09/01 06:02:28;;;;;;;0.70;0.52;;;17.10;99.90;;;;;;6168571;23;20112;-91
2022/09/01 06:05:04;;;;;;;2.00;1.13;;;17.10;99.90;;;;;;6169675;23;20110;-92
2022/09/01 06:08:04;;;;;;;1.00;0.60;;;17.10;99.90;;;;;;6170532;23;20021;-94
2022/09/01 06:11:28;;;;;;;;;;;17.20;99.90;;;;;;6172881;23;20021;-94
2022/09/01 06:14:11;;;;;;;0.95;0.60;;;17.20;99.90;;;;;;6219430;23;19928;-92
2022/09/01 06:16:42;;;;;;;1.05;0.70;;;17.30;99.90;;;;;;6168035;23;20055;-92
2022/09/01 06:19:15;;;;;;;0.75;0.52;;;17.30;99.90;;;;;;6169062;23;20043;-92
2022/09/01 06:21:58;;;;;;;1.58;0.52;;;17.30;99.90;;;;;;6172621;23;20020;-93
2022/09/01 06:24:55;;;;;;;1.08;0.65;;;17.40;99.90;;;;;;6171835;23;20304;-92
2022/09/01 06:27:47;;;;;;;0.70;0.50;;;17.50;99.90;;;;;;6182291;23;20029;-89
2022/09/01 06:30:21;;;;;;;0.85;0.50;;;17.50;99.90;;;;;;6168184;23;20013;-92
2022/09/01 06:33:00;;;;;;;1.02;0.47;;;17.60;99.90;;;;;;6171367;23;20349;-92
2022/09/01 06:35:39;;;;;;;0.88;0.50;;;17.60;99.90;;;;;;6167099;23;20012;-92
2022/09/01 06:38:20;;;;;;;1.30;0.68;;;17.60;99.90;;;;;;6169875;23;20072;-92
2022/09/01 06:41:11;;;;;;;0.73;0.60;;;17.60;99.90;;;;;;6172055;23;20020;-93
2022/09/01 06:44:14;;;;;;;1.48;0.60;;;17.70;99.90;;;;;;6170597;23;20020;-91
2022/09/01 06:47:08;;;;;;;1.48;0.77;;;17.80;99.90;;;;;;6179951;23;20290;-92
2022/09/01 06:49:58;;;;;;;1.52;0.70;;;17.80;99.90;;;;;;6197462;23;20020;-92
2022/09/01 06:52:41;;;;;;;0.63;0.43;;;17.90;99.90;;;;;;6174453;23;20075;-92
2022/09/01 06:55:42;;;;;;;1.10;0.43;;;18.00;99.90;;;;;;6196356;23;20021;-91
2022/09/01 06:58:26;;;;;;;1.73;0.50;;;18.20;99.90;;;;;;6175686;23;20024;-93
2022/09/01 07:01:10;;;;;;;0.32;0.30;;;18.20;99.90;;;;;;6169229;23;20067;-91
2022/09/01 07:03:57;;;;;;;1.50;0.68;;;18.20;99.90;;;;;;6166289;23;20029;-92
2022/09/01 07:06:50;;;;;;;1.08;0.70;;;18.30;99.90;;;;;;6171972;23;20024;-92
2022/09/01 07:09:56;;;;;;;1.90;0.90;;;18.30;99.90;;;;;;6180887;23;20091;-92
2022/09/01 07:13:01;;;;;;;0.60;0.50;;;18.30;99.90;;;;;;6181450;23;20055;-93
2022/09/01 07:15:54;;;;;;;1.42;0.60;;;18.30;99.90;;;;;;6172722;23;20032;-93
2022/09/01 07:18:59;;;;;;;1.75;0.63;;;18.30;99.90;;;;;;6182298;23;20024;-91
2022/09/01 07:21:37;;;;;;;0.88;0.47;;;18.40;99.90;;;;;;6172225;23;20074;-92
2022/09/01 07:24:38;;;;;;;1.27;0.60;;;18.50;99.90;;;;;;6180412;23;20107;-92
2022/09/01 07:27:18;;;;;;;2.20;0.50;;;18.50;99.90;;;;;;6172618;23;20024;-92
2022/09/01 07:30:08;;;;;;;1.27;0.63;;;18.60;99.90;;;;;;6175960;23;20024;-91
2022/09/01 07:32:42;;;;;;;1.23;0.70;;;18.70;99.90;;;;;;6169012;23;20753;-91
2022/09/01 07:35:43;;;;;;;0.80;0.40;;;18.80;99.90;;;;;;6178803;23;20028;-91
2022/09/01 07:38:52;;;;;;;0.70;0.50;;;18.90;99.90;;;;;;6179318;23;20488;-92
2022/09/01 07:41:46;;;;;;;0.50;0.38;;;19.00;99.90;;;;;;6181821;23;20024;-93
2022/09/01 07:44:43;;;;;;;2.35;0.60;;;19.10;99.90;;;;;;6178769;23;20024;-92
2022/09/01 07:47:29;;;;;;;1.23;0.50;;;19.20;99.90;;;;;;6170962;23;20344;-92
2022/09/01 07:50:25;;;;;;;0.80;0.40;;;19.20;99.90;;;;;;6177277;23;20019;-92
2022/09/01 07:53:22;;;;;;;0.90;0.50;;;19.30;99.90;;;;;;6127300;23;20032;-93
2022/09/01 07:56:05;;;;;;;0.63;0.40;;;19.30;99.90;;;;;;6143179;23;20473;-92
2022/09/01 07:58:46;;;;;;;0.80;0.50;;;19.40;99.90;;;;;;6145093;23;20140;-93
2022/09/01 08:01:34;;;;;;;1.13;0.73;;;19.50;99.90;;;;;;6124194;23;20021;-91
2022/09/01 08:04:15;;;;;;;0.90;0.50;;;19.60;99.90;;;;;;6125524;23;20021;-92
2022/09/01 08:07:08;;;;;;;0.60;0.40;;;19.70;99.90;;;;;;6125556;23;20332;-93
2022/09/01 08:10:11;;;;;;;0.98;0.50;;;19.80;99.90;;;;;;6133633;23;20125;-93
2022/09/01 08:13:06;;;;;;;0.95;0.50;;;20.00;99.90;;;;;;6131874;23;20024;-92
2022/09/01 08:15:56;;;;;;;0.77;0.47;;;20.10;99.90;;;;;;6126670;23;20024;-91
2022/09/01 08:18:50;;;;;;;0.80;0.50;;;20.20;99.90;;;;;;6156978;23;20023;-91
2022/09/01 08:21:29;;;;;;;0.32;0.32;;;20.10;99.90;;;;;;6122957;23;20036;-92
2022/09/01 08:24:24;;;;;;;0.50;0.40;;;20.20;99.90;;;;;;6125629;23;20025;-92
2022/09/01 08:27:05;;;;;;;1.17;0.52;;;20.10;99.90;;;;;;6143203;23;20017;-92
2022/09/01 08:29:47;;;;;;;1.58;0.52;;;20.20;99.90;;;;;;6120729;23;20318;-92
2022/09/01 08:32:32;;;;;;;1.02;0.50;;;20.10;99.90;;;;;;6120566;23;20028;-91
2022/09/01 08:35:17;;;;;;;0.98;0.63;;;20.00;99.90;;;;;;6120977;23;20341;-90
2022/09/01 08:37:52;;;;;;;0.50;0.50;;;20.10;99.90;;;;;;6120590;23;20032;-91
2022/09/01 08:40:26;;;;;;;1.48;0.65;;;20.00;99.90;;;;;;6117529;23;20037;-90
2022/09/01 08:43:23;;;;;;;1.85;0.65;;;20.00;99.90;;;;;;6118677;23;20290;-91
2022/09/01 08:45:56;;;;;;;1.35;0.60;;;20.00;99.90;;;;;;6120372;23;20076;-91
2022/09/01 08:48:36;;;;;;;1.25;0.70;;;19.90;99.90;;;;;;6139988;23;20652;-91
2022/09/01 08:52:11;;;;;;;1.10;0.50;;;19.90;99.90;;;;;;6172296;23;20024;-90
2022/09/01 08:54:47;;;;;;;2.15;1.02;;;19.90;99.90;;;;;;6139098;23;20036;-90
2022/09/01 08:57:54;;;;;;;1.67;0.80;;;20.00;99.90;;;;;;6187906;23;20020;-92
2022/09/01 09:00:40;;;;;;;1.42;0.60;;;20.10;99.90;;;;;;6190866;23;20013;-94
2022/09/01 09:03:45;;;;;;;0.90;0.60;;;20.10;99.90;;;;;;6171337;23;20261;-93
2022/09/01 09:06:54;;;;;;;2.07;0.97;;;20.20;99.90;;;;;;6177031;23;20096;-93
2022/09/01 12:00:13;;;;;;;0.45;0.30;;;21.70;99.90;;;;;;6164988;22;20115;31
2022/09/01 12:02:49;;;;;;;0.77;0.43;;;22.10;99.90;;;;;;6059845;23;20030;-69
2022/09/01 12:05:29;;;;;;;0.90;0.60;;;22.40;99.90;;;;;;6084982;23;20406;-70
2022/09/01 12:07:56;;;;;;;1.58;0.70;;;22.60;99.90;;;;;;6084266;23;21080;-70
2022/09/01 12:10:26;;;;;;;0.82;0.63;;;23.10;99.90;;;;;;6085177;23;20038;-69
2022/09/01 12:13:10;;;;;;;0.45;0.40;;;23.60;99.90;;;;;;6110924;23;20110;-69
2022/09/01 12:15:41;;;;;;;0.93;0.55;;;24.30;99.90;;;;;;6110883;23;20053;-69
2022/09/01 12:18:36;;;;;;;0.65;0.55;;;24.80;99.90;;;;;;6088432;23;20057;-69
2022/09/01 12:21:03;;;;;;;0.57;0.50;;;25.10;99.90;;;;;;6085185;23;20064;-69
2022/09/01 12:23:35;;;;;;;0.65;0.43;;;25.50;99.90;;;;;;6083577;23;20053;-69
2022/09/01 12:26:07;;;;;;;0.70;0.60;;;25.80;99.90;;;;;;6086487;23;20061;-69
2022/09/01 12:28:34;;;;;;;0.63;0.50;;;26.10;99.90;;;;;;6084060;23;20037;-69
2022/09/01 12:31:05;;;;;;;0.68;0.50;;;26.50;99.90;;;;;;6084187;23;20401;-69
2022/09/01 12:33:33;;;;;;;1.30;0.70;;;26.60;99.90;;;;;;6084018;23;20402;-69
2022/09/01 12:36:26;;;;;;;0.80;0.80;;;26.60;99.90;;;;;;6085916;23;20022;-70
2022/09/01 12:38:54;;;;;;;;;;;26.50;99.90;;;;;;6085243;23;20359;-70
2022/09/01 12:41:33;;;;;;;0.80;0.47;;;26.80;99.90;;;;;;6084911;23;19920;-69
2022/09/01 12:44:30;;;;;;;1.00;0.70;;;26.90;99.90;;;;;;6086300;23;20089;-70
2022/09/01 12:47:02;;;;;;;0.95;0.57;;;26.70;99.50;;;;;;6112140;23;20333;-70
2022/09/01 12:49:40;;;;;;;0.68;0.43;;;26.80;99.20;;;;;;6086166;23;20029;-70
2022/09/01 12:52:24;;;;;;;1.48;0.60;;;26.90;99.30;;;;;;6065739;23;20080;-70
2022/09/01 12:54:58;;;;;;;0.30;0.28;;;26.80;98.20;;;;;;6087959;23;20018;-71
2022/09/01 12:57:37;;;;;;;0.60;0.47;;;26.90;98.80;;;;;;6086831;23;20086;-70
2022/09/01 13:00:14;;;;;;;0.45;0.40;;;26.90;99.30;;;;;;6085557;23;20022;-70
2022/09/01 13:03:02;;;;;;;1.13;0.60;;;26.90;98.90;;;;;;6110773;23;20060;-70
2022/09/01 13:05:32;;;;;;;0.75;0.50;;;26.60;98.80;;;;;;6090128;23;20078;-70
2022/09/01 13:08:12;;;;;;;0.63;0.50;;;26.80;98.60;;;;;;6087449;23;20100;-72
2022/09/01 13:10:45;;;;;;;0.47;0.30;;;27.00;98.30;;;;;;6086565;23;20474;-71
2022/09/01 13:13:12;;;;;;;1.00;0.50;;;27.00;97.70;;;;;;6086590;23;20352;-71
2022/09/01 13:15:42;;;;;;;0.52;0.40;;;27.00;97.80;;;;;;6086074;23;20130;-71
2022/09/01 13:18:09;;;;;;;0.70;0.40;;;27.00;98.00;;;;;;6086519;23;20235;-71
2022/09/01 13:20:37;;;;;;;0.95;0.60;;;27.00;97.30;;;;;;6112107;23;20041;-71
2022/09/01 13:23:03;;;;;;;1.42;1.10;;;26.80;97.80;;;;;;6108611;23;20045;-71
2022/09/01 13:25:30;;;;;;;0.82;0.80;;;26.40;97.70;;;;;;6084711;23;20029;-71
2022/09/01 13:28:01;;;;;;;1.10;0.75;;;26.20;98.00;;;;;;6085766;23;20127;-71
2022/09/01 13:30:28;;;;;;;1.20;0.73;;;26.10;98.40;;;;;;6086269;23;20422;-71
2022/09/01 13:32:56;;;;;;;0.75;0.57;;;25.90;98.40;;;;;;6083697;23;20026;-71
2022/09/01 13:35:43;;;;;;;0.50;0.50;;;25.90;98.60;;;;;;6089532;23;20021;-71
2022/09/01 13:38:09;;;;;;;0.57;0.40;;;25.70;98.60;;;;;;6111030;23;20045;-71
2022/09/01 13:40:36;;;;;;;0.80;0.50;;;25.70;98.90;;;;;;6085485;23;20041;-71
2022/09/01 13:43:04;;;;;;;0.80;0.50;;;25.70;98.60;;;;;;6110145;23;20731;-71
2022/09/01 13:45:31;;;;;;;1.10;0.68;;;25.60;98.60;;;;;;6111318;23;20022;-71
2022/09/01 13:47:59;;;;;;;1.25;0.82;;;25.40;98.00;;;;;;6111139;23;20029;-71
2022/09/01 13:50:44;;;;;;;0.52;0.40;;;25.30;97.90;;;;;;6088401;23;20225;-71
2022/09/01 13:53:34;;;;;;;0.55;0.47;;;25.30;98.40;;;;;;6068697;23;20085;-70
2022/09/01 13:56:01;;;;;;;1.20;0.60;;;25.50;97.90;;;;;;6111122;23;20243;-71
2022/09/01 13:58:27;;;;;;;1.27;0.55;;;25.50;97.70;;;;;;6112348;23;20026;-71
2022/09/01 14:00:58;;;;;;;0.50;0.43;;;25.50;98.00;;;;;;6084511;23;20092;-71
2022/09/01 14:03:26;;;;;;;1.38;1.00;;;25.40;97.80;;;;;;6085607;23;20029;-71
2022/09/01 14:05:53;;;;;;;1.13;0.80;;;25.20;97.90;;;;;;6111078;23;20468;-71
2022/09/01 14:08:21;;;;;;;2.63;1.27;;;25.30;97.60;;;;;;6084478;23;20458;-71
2022/09/01 14:10:49;;;;;;;0.77;0.60;;;25.20;97.60;;;;;;6110895;23;20402;-70
2022/09/01 14:13:17;;;;;;;1.08;0.80;;;25.10;97.80;;;;;;6085956;23;20026;-71
2022/09/01 14:15:45;;;;;;;1.83;1.10;;;25.10;98.40;;;;;;6085702;23;20039;-71
2022/09/01 14:18:13;;;;;;;1.02;0.70;;;25.10;97.90;;;;;;6085533;23;20422;-71
2022/09/01 14:20:43;;;;;;;0.95;0.77;;;25.30;97.90;;;;;;6085686;23;20461;-71
2022/09/01 14:23:10;;;;;;;0.93;0.68;;;25.70;97.70;;;;;;6085726;23;20338;-75
2022/09/01 14:25:40;;;;;;;0.80;0.60;;;26.70;97.10;;;;;;6112368;23;20022;-76
2022/09/01 14:28:07;;;;;;;0.65;0.65;;;27.20;96.70;;;;;;6087063;23;20026;-76
2022/09/01 14:30:34;;;;;;;0.93;0.82;;;28.30;95.70;;;;;;6085935;23;20268;-76
2022/09/01 14:33:01;;;;;;;2.10;1.33;;;28.40;95.30;;;;;;6084915;23;20037;-76
2022/09/01 14:35:32;;;;;;;1.80;1.00;;;28.60;94.70;;;;;;6085722;23;20025;-76
2022/09/01 14:37:59;;;;;;;0.90;0.82;;;29.20;94.20;;;;;;6111393;23;20352;-76
2022/09/01 14:40:27;;;;;;;1.92;0.80;;;29.00;93.40;;;;;;6086194;23;20029;-76
2022/09/01 14:42:54;;;;;;;1.00;0.68;;;28.60;93.30;;;;;;6085592;23;20488;-76
2022/09/01 14:45:23;;;;;;;0.75;0.70;;;28.40;93.50;;;;;;6084590;23;20033;-76
2022/09/01 14:47:52;;;;;;;0.80;0.57;;;28.10;93.50;;;;;;6084548;23;20147;-77
2022/09/01 14:50:20;;;;;;;0.60;0.50;;;27.70;93.60;;;;;;6061821;23;20026;-77
2022/09/01 14:52:51;;;;;;;0.80;0.60;;;27.50;94.00;;;;;;6061817;23;20034;-77
2022/09/01 14:55:18;;;;;;;0.63;0.57;;;27.10;93.40;;;;;;6063285;23;20112;-77
2022/09/01 14:57:46;;;;;;;0.60;0.60;;;26.80;93.90;;;;;;6063296;23;20029;-77
2022/09/01 15:00:13;;;;;;;0.70;0.68;;;27.10;94.00;;;;;;6086588;23;20018;-77
2022/09/01 15:02:40;;;;;;;0.50;0.50;;;27.20;93.50;;;;;;6061194;23;20284;-77
2022/09/01 15:05:08;;;;;;;0.47;0.47;;;27.10;93.20;;;;;;6086662;23;20026;-77
2022/09/01 15:07:35;;;;;;;0.63;0.63;;;26.90;93.70;;;;;;6112902;23;20022;-77
2022/09/01 15:10:03;;;;;;;0.77;0.70;;;26.60;93.90;;;;;;6087129;23;20042;-77
2022/09/01 15:12:30;;;;;;;0.80;0.70;;;26.40;94.00;;;;;;6062759;23;20422;-77
2022/09/01 15:14:58;;;;;;;1.10;0.80;;;26.10;94.20;;;;;;6112303;23;20034;-77
2022/09/01 15:17:25;;;;;;;0.98;0.90;;;25.90;94.20;;;;;;6061573;23;20085;-77
2022/09/01 15:19:52;;;;;;;1.00;0.70;;;26.10;94.30;;;;;;6086170;23;20068;-77
2022/09/01 15:22:19;;;;;;;0.80;0.60;;;26.20;93.90;;;;;;6085814;23;20121;-77
2022/09/01 15:24:46;;;;;;;1.67;0.98;;;26.40;94.30;;;;;;6086495;23;20044;-77
2022/09/01 15:27:13;;;;;;;0.50;0.50;;;26.60;93.90;;;;;;6086273;23;20219;-77
2022/09/01 15:29:45;;;;;;;0.70;0.70;;;26.80;93.60;;;;;;6085703;23;20461;-77
2022/09/01 15:32:12;;;;;;;0.80;0.80;;;27.20;93.20;;;;;;6086338;23;20060;-77
2022/09/01 15:34:54;;;;;;;0.63;0.60;;;28.10;92.90;;;;;;6089717;23;20061;-77
2022/09/01 15:37:21;;;;;;;0.52;0.52;;;28.60;92.50;;;;;;6062338;23;20199;-78
2022/09/01 15:39:48;;;;;;;0.73;0.70;;;29.10;92.10;;;;;;6063302;23;20096;-77
2022/09/01 15:42:15;;;;;;;0.52;0.52;;;29.60;91.60;;;;;;6085443;23;20128;-77
2022/09/01 15:44:43;;;;;;;0.63;0.60;;;29.30;91.40;;;;;;6086760;23;20049;-77
2022/09/01 15:47:09;;;;;;;0.68;0.60;;;28.90;91.70;;;;;;6111720;23;20339;-77
2022/09/01 15:49:36;;;;;;;0.80;0.70;;;29.30;92.20;;;;;;6112469;23;20026;-77
2022/09/01 15:52:03;;;;;;;0.65;0.57;;;29.50;91.40;;;;;;6086137;23;20259;-78
2022/09/01 15:54:30;;;;;;;0.98;0.60;;;28.70;92.10;;;;;;6110219;23;20022;-77
2022/09/01 15:56:56;;;;;;;2.95;0.60;;;28.30;92.50;;;;;;6085932;23;20442;-77
2022/09/01 15:59:23;;;;;;;0.85;0.68;;;27.90;92.70;;;;;;6086070;23;20028;-77
2022/09/01 16:01:52;;;;;;;1.17;0.60;;;27.50;93.00;;;;;;6085465;23;20323;-77
2022/09/01 16:04:19;;;;;;;0.52;0.52;;;27.20;93.30;;;;;;6111851;23;20041;-77
2022/09/01 16:06:55;;;;;;;0.90;0.70;;;26.70;93.70;;;;;;6087554;23;20032;-77
2022/09/01 16:09:22;;;;;;;1.05;0.70;;;26.30;94.50;;;;;;6087159;23;20406;-77
2022/09/01 16:11:49;;;;;;;1.38;0.88;;;26.10;95.10;;;;;;6086347;23;20026;-77
2022/09/01 16:14:16;;;;;;;2.40;0.73;;;25.90;95.70;;;;;;6062346;23;20520;-77
2022/09/01 16:17:02;;;;;;;1.17;0.55;;;25.60;96.00;;;;;;6085324;23;20282;-77
2022/09/01 16:19:51;;;;;;;0.75;0.63;;;25.30;96.70;;;;;;6087549;23;20081;-77
2022/09/01 16:22:35;;;;;;;0.95;0.60;;;25.20;97.00;;;;;;6062744;23;20616;-77
2022/09/01 16:25:16;;;;;;;1.15;0.68;;;25.20;97.20;;;;;;6089435;23;20026;-76
2022/09/01 16:27:44;;;;;;;0.55;0.50;;;25.60;97.10;;;;;;6088287;23;20032;-77
2022/09/01 16:30:21;;;;;;;0.85;0.57;;;25.90;97.20;;;;;;6063247;23;20029;-77
2022/09/01 16:32:47;;;;;;;0.80;0.50;;;26.00;97.00;;;;;;6087511;23;20022;-77
2022/09/01 16:35:15;;;;;;;0.82;0.70;;;26.10;97.10;;;;;;6063900;23;20030;-77
2022/09/01 16:37:48;;;;;;;1.27;0.80;;;26.10;97.40;;;;;;6087300;23;20050;-77
2022/09/01 16:40:48;;;;;;;1.35;0.70;;;26.20;97.90;;;;;;6064531;23;20025;-77
2022/09/01 16:43:21;;;;;;;0.88;0.52;;;26.30;97.90;;;;;;6067953;23;20314;-77